createdAt,value
2023-02-14T00:02:14.665Z,43.90
2023-02-14T00:06:06.539Z,47.00
2023-02-14T00:21:37.778Z,45.60
2023-02-14T00:25:19.711Z,51.80
2023-02-14T00:29:08.724Z,44.70
2023-02-14T00:32:57.803Z,45.40
2023-02-14T00:36:47.079Z,52.00
2023-02-14T00:40:35.780Z,46.90
2023-02-14T00:44:24.818Z,48.90
2023-02-14T00:48:13.917Z,53.30
2023-02-14T00:52:04.909Z,49.30
2023-02-14T00:55:53.637Z,43.30
2023-02-14T00:59:42.331Z,52.30
2023-02-14T01:03:31.658Z,52.00
2023-02-14T01:07:20.341Z,49.80
2023-02-14T01:11:09.550Z,47.40
2023-02-14T01:14:57.512Z,47.30
2023-02-14T01:18:46.727Z,42.40
2023-02-14T01:22:35.916Z,44.80
2023-02-14T01:26:25.387Z,50.10
2023-02-14T01:30:14.457Z,48.80
2023-02-14T01:34:03.571Z,45.10
2023-02-14T01:37:52.535Z,41.50
2023-02-14T01:41:44.431Z,47.60
2023-02-14T01:45:39.352Z,44.70
2023-02-14T01:49:28.456Z,41.50
2023-02-14T01:53:18.430Z,37.20
2023-02-14T02:00:54.586Z,39.60
2023-02-14T02:13:09.044Z,43.50
2023-02-14T02:17:05.533Z,43.10
2023-02-14T02:20:55.888Z,45.40
2023-02-14T02:33:05.436Z,46.50
2023-02-14T02:36:53.196Z,46.50
2023-02-14T02:41:03.779Z,46.80
2023-02-14T02:57:07.884Z,47.00
2023-02-14T03:00:57.903Z,53.20
2023-02-14T03:04:45.957Z,48.50
2023-02-14T03:08:35.090Z,57.70
2023-02-14T03:12:24.225Z,61.90
2023-02-14T03:28:28.303Z,50.00
2023-02-14T03:32:32.246Z,46.00
2023-02-14T03:45:03.001Z,45.20
2023-02-14T03:48:50.901Z,41.00
2023-02-14T03:52:38.420Z,38.10
2023-02-14T04:00:29.368Z,35.40
2023-02-14T04:04:08.311Z,37.50
2023-02-14T04:07:57.344Z,35.60
2023-02-14T04:11:46.493Z,33.90
2023-02-14T04:15:36.272Z,33.00
2023-02-14T04:19:44.182Z,38.50
2023-02-14T04:23:33.194Z,37.50
2023-02-14T04:27:32.323Z,34.20
2023-02-14T04:31:21.806Z,35.60
2023-02-14T04:35:11.847Z,37.70
2023-02-14T04:38:59.890Z,43.00
2023-02-14T04:42:50.001Z,38.10
2023-02-14T04:46:39.082Z,38.80
2023-02-14T04:50:28.386Z,38.20
2023-02-14T04:54:17.400Z,39.50
2023-02-14T04:57:08.312Z,43.30
2023-02-14T05:00:37.158Z,43.40
2023-02-14T05:04:26.285Z,43.20
2023-02-14T05:08:15.248Z,39.20
2023-02-14T05:12:05.947Z,45.90
2023-02-14T05:15:54.560Z,48.10
2023-02-14T05:19:38.820Z,48.90
2023-02-14T05:23:27.886Z,56.10
2023-02-14T05:27:17.879Z,45.10
2023-02-14T05:46:45.085Z,50.80
2023-02-14T05:50:34.051Z,52.00
2023-02-14T05:54:11.986Z,52.90
2023-02-14T05:58:01.906Z,58.10
2023-02-14T06:01:30.649Z,55.70
2023-02-14T06:05:08.744Z,60.20
2023-02-14T06:08:21.710Z,58.10
2023-02-14T06:15:57.110Z,57.70
2023-02-14T06:19:46.263Z,50.90
2023-02-14T06:23:36.596Z,63.50
2023-02-14T06:26:50.504Z,73.50
2023-02-14T06:30:24.912Z,78.40
2023-02-14T06:33:56.055Z,66.80
2023-02-14T06:55:05.833Z,74.80
2023-02-14T06:58:54.883Z,68.50
2023-02-14T07:02:35.647Z,69.20
2023-02-14T07:06:17.696Z,70.30
2023-02-14T07:09:37.006Z,64.40
2023-02-14T07:13:06.018Z,66.20
2023-02-14T07:16:55.255Z,85.20
2023-02-14T07:20:45.493Z,90.00
2023-02-14T07:24:14.539Z,82.90
2023-02-14T07:28:03.690Z,85.50
2023-02-14T07:38:10.431Z,74.70
2023-02-14T07:44:42.022Z,90.30
2023-02-14T07:48:02.656Z,96.40
2023-02-14T07:51:26.651Z,97.30
2023-02-14T07:54:55.626Z,89.70
2023-02-14T07:58:29.321Z,89.80
2023-02-14T08:12:42.680Z,60.30
2023-02-14T08:15:55.215Z,56.50
2023-02-14T08:18:42.044Z,65.60
2023-02-14T09:16:23.342Z,43.10
2023-02-14T09:20:12.622Z,50.00
2023-02-14T09:23:24.372Z,45.60
2023-02-14T09:26:56.456Z,42.40
2023-02-14T09:30:38.589Z,38.60
2023-02-14T09:34:28.994Z,45.30
2023-02-14T09:38:11.552Z,43.00
2023-02-14T09:42:09.695Z,40.50
2023-02-14T09:46:21.995Z,41.90
2023-02-14T09:49:19.864Z,46.10
2023-02-14T09:52:03.400Z,42.30
2023-02-14T09:55:14.793Z,38.30
2023-02-14T09:59:09.899Z,37.10
2023-02-14T10:02:55.715Z,39.30
2023-02-14T10:06:42.919Z,41.30
2023-02-14T10:29:46.700Z,46.50
2023-02-14T10:33:39.735Z,43.60
2023-02-14T10:37:24.366Z,47.80
2023-02-14T10:41:24.313Z,48.60
2023-02-14T10:52:20.455Z,45.20
2023-02-14T10:56:19.161Z,75.30
2023-02-14T10:59:52.116Z,42.50
2023-02-14T11:21:37.433Z,32.30
2023-02-14T11:25:26.035Z,28.60
2023-02-14T11:29:14.730Z,27.50
2023-02-14T11:33:04.435Z,32.00
2023-02-14T11:36:18.223Z,31.20
2023-02-14T11:40:04.274Z,29.30
2023-02-14T11:43:16.544Z,30.50
2023-02-14T11:46:53.428Z,28.90
2023-02-14T11:50:00.692Z,34.30
2023-02-14T11:52:56.420Z,28.90
2023-02-14T11:56:02.721Z,25.30
2023-02-14T11:59:37.641Z,30.10
2023-02-14T12:25:38.050Z,33.50
2023-02-14T12:29:27.544Z,31.20
2023-02-14T12:33:16.726Z,33.00
2023-02-14T12:37:06.404Z,27.70
2023-02-14T12:43:55.533Z,27.50
2023-02-14T12:47:23.136Z,27.30
2023-02-14T12:51:01.003Z,28.80
2023-02-14T12:54:48.901Z,25.40
2023-02-14T12:58:38.116Z,23.60
2023-02-14T13:19:19.705Z,10.60
2023-02-14T13:22:33.377Z,12.30
2023-02-14T13:25:50.912Z,9.20
2023-02-14T13:28:59.856Z,11.30
2023-02-14T13:31:43.024Z,10.40
2023-02-14T13:35:04.413Z,12.70
2023-02-14T13:38:51.824Z,16.60
2023-02-14T13:42:14.942Z,19.40
2023-02-14T13:45:32.716Z,14.00
2023-02-14T13:48:17.667Z,18.40
2023-02-14T13:51:40.725Z,18.80
2023-02-14T13:55:48.764Z,18.50
2023-02-14T14:03:31.454Z,20.40
2023-02-14T14:24:27.434Z,27.60
2023-02-14T14:28:16.687Z,28.50
2023-02-14T14:32:06.255Z,26.30
2023-02-14T14:50:43.470Z,24.90
2023-02-14T14:54:28.166Z,25.20
2023-02-14T14:57:28.259Z,21.30
2023-02-14T15:00:45.647Z,25.40
2023-02-14T15:03:22.752Z,21.10
2023-02-14T15:06:54.940Z,23.50
2023-02-14T15:10:16.580Z,23.40
2023-02-14T15:13:48.328Z,21.10
2023-02-14T15:16:34.705Z,22.10
2023-02-14T15:19:32.760Z,29.40
2023-02-14T16:00:05.639Z,39.40
2023-02-14T16:03:45.099Z,37.10
2023-02-14T16:07:34.371Z,39.80
2023-02-14T16:11:23.591Z,39.90
2023-02-14T16:15:21.920Z,37.00
2023-02-14T16:27:43.628Z,36.70
2023-02-14T16:31:34.112Z,34.60
2023-02-14T16:35:14.666Z,35.80
2023-02-14T16:39:02.227Z,37.10
2023-02-14T16:42:49.926Z,38.30
2023-02-14T16:46:27.143Z,46.50
2023-02-14T16:50:14.904Z,48.90
2023-02-14T16:54:02.968Z,45.90
2023-02-14T16:57:52.427Z,41.30
2023-02-14T17:17:12.229Z,160.40
2023-02-14T17:21:01.406Z,188.60
2023-02-14T17:24:51.147Z,184.50
2023-02-14T17:28:40.320Z,197.40
2023-02-14T17:32:29.869Z,169.60
2023-02-14T17:36:19.007Z,125.10
2023-02-14T17:40:08.129Z,125.50
2023-02-14T17:43:58.131Z,147.10
2023-02-14T17:48:26.399Z,153.30
2023-02-14T17:52:14.123Z,143.30
2023-02-14T17:55:54.471Z,150.10
2023-02-14T18:03:09.228Z,122.80
2023-02-14T18:06:56.712Z,165.50
2023-02-14T18:10:44.581Z,220.00
2023-02-14T18:14:35.228Z,197.90
2023-02-14T18:22:17.962Z,147.50
2023-02-14T18:26:07.241Z,157.80
2023-02-14T18:29:56.466Z,144.70
2023-02-14T18:33:45.967Z,178.20
2023-02-14T18:37:36.008Z,191.40
2023-02-14T18:41:25.330Z,179.30
2023-02-14T18:45:14.361Z,166.20
2023-02-14T18:49:03.796Z,150.20
2023-02-14T18:52:53.445Z,203.00
2023-02-14T18:56:45.884Z,150.50
2023-02-14T19:00:34.862Z,148.40
2023-02-14T19:04:23.818Z,158.40
2023-02-14T19:08:13.065Z,122.70
2023-02-14T19:12:02.379Z,113.40
2023-02-14T19:15:55.240Z,105.90
2023-02-14T19:19:37.253Z,117.30
2023-02-14T19:35:07.956Z,132.60
2023-02-14T19:38:57.354Z,189.40
2023-02-14T19:42:47.176Z,165.50
2023-02-14T19:46:37.208Z,187.50
2023-02-14T19:50:26.232Z,173.30
2023-02-14T19:54:16.246Z,150.70
2023-02-14T19:58:04.953Z,132.30
2023-02-14T20:01:56.628Z,147.30
2023-02-14T20:21:31.440Z,98.10
2023-02-14T20:25:19.185Z,110.30
2023-02-14T20:29:06.337Z,121.40
2023-02-14T20:32:53.954Z,139.20
2023-02-14T20:36:43.220Z,167.80
2023-02-14T20:40:32.249Z,191.00
2023-02-14T20:52:22.099Z,159.10
2023-02-14T20:55:46.540Z,141.10
2023-02-14T20:59:29.594Z,146.00
2023-02-14T21:03:13.605Z,140.50
2023-02-14T21:07:29.983Z,260.20
2023-02-14T21:11:17.966Z,194.50
2023-02-14T21:15:07.284Z,195.80
2023-02-14T21:18:56.203Z,164.20
2023-02-14T21:22:45.339Z,156.40
2023-02-14T21:26:35.477Z,203.00
2023-02-14T21:30:24.629Z,286.50
2023-02-14T21:34:16.691Z,181.60
2023-02-14T21:38:05.907Z,228.90
2023-02-14T21:41:57.719Z,153.40
2023-02-14T21:45:45.732Z,244.00
2023-02-14T21:49:33.304Z,153.10
2023-02-14T21:57:19.211Z,360.80
2023-02-14T22:01:08.487Z,202.20
2023-02-14T22:04:57.802Z,198.50
2023-02-14T22:08:46.649Z,178.10
2023-02-14T22:12:35.902Z,166.40
2023-02-14T22:16:24.944Z,161.10
2023-02-14T22:20:14.335Z,159.80
2023-02-14T22:24:03.322Z,160.30
2023-02-14T22:27:51.643Z,151.20
2023-02-14T22:51:15.080Z,51.80
2023-02-14T22:55:04.041Z,48.10
2023-02-14T22:58:53.071Z,46.10
2023-02-14T23:02:42.434Z,40.10
2023-02-14T23:06:38.774Z,46.90
2023-02-14T23:10:27.819Z,51.60
2023-02-14T23:14:16.401Z,54.70
2023-02-14T23:18:03.238Z,57.40
2023-02-14T23:21:49.042Z,68.30
2023-02-14T23:25:38.104Z,67.00
2023-02-14T23:29:26.132Z,71.60
2023-02-14T23:33:55.451Z,75.30
2023-02-14T23:37:44.768Z,64.80
2023-02-14T23:41:32.323Z,67.50
2023-02-14T23:45:21.547Z,65.10
2023-02-14T23:49:10.667Z,63.20
2023-02-14T23:52:59.887Z,63.80
2023-02-14T23:56:48.996Z,56.60
